sensor_id;sensor_type;location;lat;lon;timestamp;temperature;humidity
55634;DHT22;41504;53.162;6.788;2023-08-06T00:00:55;15.10;96.10
55634;DHT22;41504;53.162;6.788;2023-08-06T00:03:21;15.00;96.10
55634;DHT22;41504;53.162;6.788;2023-08-06T00:05:47;15.10;96.10
55634;DHT22;41504;53.162;6.788;2023-08-06T00:08:13;15.10;96.10
55634;DHT22;41504;53.162;6.788;2023-08-06T00:10:39;15.00;96.10
55634;DHT22;41504;53.162;6.788;2023-08-06T00:13:09;15.00;96.10
55634;DHT22;41504;53.162;6.788;2023-08-06T00:15:35;15.00;96.40
55634;DHT22;41504;53.162;6.788;2023-08-06T00:18:01;15.00;96.20
55634;DHT22;41504;53.162;6.788;2023-08-06T00:20:26;14.90;96.20
55634;DHT22;41504;53.162;6.788;2023-08-06T00:22:52;14.90;96.30
55634;DHT22;41504;53.162;6.788;2023-08-06T00:25:18;14.90;96.30
55634;DHT22;41504;53.162;6.788;2023-08-06T00:27:44;14.90;96.30
55634;DHT22;41504;53.162;6.788;2023-08-06T00:30:10;14.90;96.40
55634;DHT22;41504;53.162;6.788;2023-08-06T00:32:36;14.90;96.40
55634;DHT22;41504;53.162;6.788;2023-08-06T00:35:02;15.00;96.40
55634;DHT22;41504;53.162;6.788;2023-08-06T00:37:29;14.90;96.30
55634;DHT22;41504;53.162;6.788;2023-08-06T00:39:55;14.90;96.40
55634;DHT22;41504;53.162;6.788;2023-08-06T00:42:22;14.90;96.40
55634;DHT22;41504;53.162;6.788;2023-08-06T00:44:48;14.90;96.50
55634;DHT22;41504;53.162;6.788;2023-08-06T00:47:14;14.90;96.50
55634;DHT22;41504;53.162;6.788;2023-08-06T00:49:40;14.90;96.50
55634;DHT22;41504;53.162;6.788;2023-08-06T00:52:09;14.90;96.50
55634;DHT22;41504;53.162;6.788;2023-08-06T00:54:36;14.90;96.50
55634;DHT22;41504;53.162;6.788;2023-08-06T00:57:09;14.90;96.60
55634;DHT22;41504;53.162;6.788;2023-08-06T00:59:35;14.90;96.70
55634;DHT22;41504;53.162;6.788;2023-08-06T01:02:01;14.90;96.70
55634;DHT22;41504;53.162;6.788;2023-08-06T01:04:30;14.90;96.70
55634;DHT22;41504;53.162;6.788;2023-08-06T01:10:19;14.90;96.70
55634;DHT22;41504;53.162;6.788;2023-08-06T01:13:24;14.90;96.70
55634;DHT22;41504;53.162;6.788;2023-08-06T01:15:50;14.90;96.70
55634;DHT22;41504;53.162;6.788;2023-08-06T01:18:17;14.80;96.80
55634;DHT22;41504;53.162;6.788;2023-08-06T01:20:43;14.80;96.80
55634;DHT22;41504;53.162;6.788;2023-08-06T01:23:12;14.80;96.80
55634;DHT22;41504;53.162;6.788;2023-08-06T01:28:59;14.80;96.80
55634;DHT22;41504;53.162;6.788;2023-08-06T01:31:36;14.80;96.90
55634;DHT22;41504;53.162;6.788;2023-08-06T01:34:05;14.80;96.90
55634;DHT22;41504;53.162;6.788;2023-08-06T01:36:31;14.80;97.00
55634;DHT22;41504;53.162;6.788;2023-08-06T01:38:57;14.80;97.00
55634;DHT22;41504;53.162;6.788;2023-08-06T01:41:23;14.80;97.00
55634;DHT22;41504;53.162;6.788;2023-08-06T01:43:52;14.80;97.10
55634;DHT22;41504;53.162;6.788;2023-08-06T01:46:18;14.80;97.10
55634;DHT22;41504;53.162;6.788;2023-08-06T01:48:43;14.80;97.10
55634;DHT22;41504;53.162;6.788;2023-08-06T01:51:09;14.70;97.20
55634;DHT22;41504;53.162;6.788;2023-08-06T01:53:35;14.80;97.40
55634;DHT22;41504;53.162;6.788;2023-08-06T01:56:01;14.80;97.20
55634;DHT22;41504;53.162;6.788;2023-08-06T01:58:26;14.80;97.20
55634;DHT22;41504;53.162;6.788;2023-08-06T02:00:52;14.80;97.30
55634;DHT22;41504;53.162;6.788;2023-08-06T02:03:18;14.80;97.30
55634;DHT22;41504;53.162;6.788;2023-08-06T02:05:44;14.80;97.30
55634;DHT22;41504;53.162;6.788;2023-08-06T02:08:11;14.80;97.30
55634;DHT22;41504;53.162;6.788;2023-08-06T02:10:39;14.80;97.30
55634;DHT22;41504;53.162;6.788;2023-08-06T02:13:05;14.70;97.40
55634;DHT22;41504;53.162;6.788;2023-08-06T02:15:31;14.70;97.40
55634;DHT22;41504;53.162;6.788;2023-08-06T02:17:57;14.70;97.40
55634;DHT22;41504;53.162;6.788;2023-08-06T02:20:22;14.70;97.40
55634;DHT22;41504;53.162;6.788;2023-08-06T02:22:48;14.70;97.50
55634;DHT22;41504;53.162;6.788;2023-08-06T02:25:14;14.70;97.50
55634;DHT22;41504;53.162;6.788;2023-08-06T02:27:39;14.70;97.50
55634;DHT22;41504;53.162;6.788;2023-08-06T02:30:08;14.80;97.50
55634;DHT22;41504;53.162;6.788;2023-08-06T02:32:34;14.70;97.50
55634;DHT22;41504;53.162;6.788;2023-08-06T02:35:02;14.70;97.50
55634;DHT22;41504;53.162;6.788;2023-08-06T02:37:27;14.80;97.50
55634;DHT22;41504;53.162;6.788;2023-08-06T02:39:53;14.80;97.50
55634;DHT22;41504;53.162;6.788;2023-08-06T02:42:19;14.70;97.50
55634;DHT22;41504;53.162;6.788;2023-08-06T02:44:44;14.70;97.50
55634;DHT22;41504;53.162;6.788;2023-08-06T02:47:10;14.80;97.60
55634;DHT22;41504;53.162;6.788;2023-08-06T02:49:42;14.80;97.60
55634;DHT22;41504;53.162;6.788;2023-08-06T02:52:08;14.80;97.50
55634;DHT22;41504;53.162;6.788;2023-08-06T02:54:34;14.80;97.50
55634;DHT22;41504;53.162;6.788;2023-08-06T02:56:59;14.80;97.50
55634;DHT22;41504;53.162;6.788;2023-08-06T02:59:25;14.80;97.50
55634;DHT22;41504;53.162;6.788;2023-08-06T03:01:51;14.80;97.60
55634;DHT22;41504;53.162;6.788;2023-08-06T03:04:17;14.80;97.60
55634;DHT22;41504;53.162;6.788;2023-08-06T03:06:43;14.70;97.50
55634;DHT22;41504;53.162;6.788;2023-08-06T03:09:09;14.80;97.60
55634;DHT22;41504;53.162;6.788;2023-08-06T03:11:35;14.80;97.50
55634;DHT22;41504;53.162;6.788;2023-08-06T03:14:03;14.80;97.50
55634;DHT22;41504;53.162;6.788;2023-08-06T03:16:28;14.80;97.80
55634;DHT22;41504;53.162;6.788;2023-08-06T03:18:58;14.80;97.50
55634;DHT22;41504;53.162;6.788;2023-08-06T03:21:23;14.80;97.50
55634;DHT22;41504;53.162;6.788;2023-08-06T03:23:49;14.80;97.50
55634;DHT22;41504;53.162;6.788;2023-08-06T03:26:15;14.80;97.50
55634;DHT22;41504;53.162;6.788;2023-08-06T03:28:41;14.70;97.50
55634;DHT22;41504;53.162;6.788;2023-08-06T03:31:09;14.70;97.50
55634;DHT22;41504;53.162;6.788;2023-08-06T03:33:35;14.70;97.50
55634;DHT22;41504;53.162;6.788;2023-08-06T03:36:04;14.80;97.60
55634;DHT22;41504;53.162;6.788;2023-08-06T03:38:30;14.80;97.60
55634;DHT22;41504;53.162;6.788;2023-08-06T03:41:01;14.80;97.60
55634;DHT22;41504;53.162;6.788;2023-08-06T03:43:27;14.80;97.60
55634;DHT22;41504;53.162;6.788;2023-08-06T03:45:53;14.80;97.60
55634;DHT22;41504;53.162;6.788;2023-08-06T03:48:18;14.80;97.60
55634;DHT22;41504;53.162;6.788;2023-08-06T03:50:44;14.80;97.60
55634;DHT22;41504;53.162;6.788;2023-08-06T03:53:10;14.80;97.60
55634;DHT22;41504;53.162;6.788;2023-08-06T03:55:35;14.80;97.60
55634;DHT22;41504;53.162;6.788;2023-08-06T03:58:04;14.80;97.50
55634;DHT22;41504;53.162;6.788;2023-08-06T04:00:30;14.80;97.50
55634;DHT22;41504;53.162;6.788;2023-08-06T04:02:56;14.80;97.50
55634;DHT22;41504;53.162;6.788;2023-08-06T04:05:21;14.80;97.50
55634;DHT22;41504;53.162;6.788;2023-08-06T04:07:47;14.80;97.50
55634;DHT22;41504;53.162;6.788;2023-08-06T04:10:13;14.80;97.50
55634;DHT22;41504;53.162;6.788;2023-08-06T04:12:38;14.70;97.50
55634;DHT22;41504;53.162;6.788;2023-08-06T04:15:05;14.80;97.60
55634;DHT22;41504;53.162;6.788;2023-08-06T04:17:31;14.80;97.60
55634;DHT22;41504;53.162;6.788;2023-08-06T04:19:56;14.80;97.60
55634;DHT22;41504;53.162;6.788;2023-08-06T04:22:25;14.70;97.60
55634;DHT22;41504;53.162;6.788;2023-08-06T04:24:51;14.80;97.60
55634;DHT22;41504;53.162;6.788;2023-08-06T04:27:18;14.70;97.60
55634;DHT22;41504;53.162;6.788;2023-08-06T04:29:44;14.70;97.70
55634;DHT22;41504;53.162;6.788;2023-08-06T04:32:10;14.70;97.70
55634;DHT22;41504;53.162;6.788;2023-08-06T04:34:37;14.60;97.80
55634;DHT22;41504;53.162;6.788;2023-08-06T04:37:04;14.60;97.80
55634;DHT22;41504;53.162;6.788;2023-08-06T04:39:30;14.70;97.80
55634;DHT22;41504;53.162;6.788;2023-08-06T04:41:56;14.60;97.80
55634;DHT22;41504;53.162;6.788;2023-08-06T04:44:23;14.60;97.80
55634;DHT22;41504;53.162;6.788;2023-08-06T04:46:49;14.60;97.80
55634;DHT22;41504;53.162;6.788;2023-08-06T04:49:15;14.60;97.90
55634;DHT22;41504;53.162;6.788;2023-08-06T04:51:40;14.50;98.00
55634;DHT22;41504;53.162;6.788;2023-08-06T04:54:10;14.50;98.10
55634;DHT22;41504;53.162;6.788;2023-08-06T04:56:35;14.50;98.30
55634;DHT22;41504;53.162;6.788;2023-08-06T04:59:01;14.50;98.30
55634;DHT22;41504;53.162;6.788;2023-08-06T05:01:27;14.40;98.30
55634;DHT22;41504;53.162;6.788;2023-08-06T05:03:54;14.40;98.40
55634;DHT22;41504;53.162;6.788;2023-08-06T05:06:19;14.40;98.50
55634;DHT22;41504;53.162;6.788;2023-08-06T05:08:45;14.40;98.50
55634;DHT22;41504;53.162;6.788;2023-08-06T05:11:11;14.50;98.50
55634;DHT22;41504;53.162;6.788;2023-08-06T05:13:39;14.50;98.50
55634;DHT22;41504;53.162;6.788;2023-08-06T05:16:05;14.50;98.40
55634;DHT22;41504;53.162;6.788;2023-08-06T05:18:31;14.50;98.40
55634;DHT22;41504;53.162;6.788;2023-08-06T05:20:56;14.60;98.40
55634;DHT22;41504;53.162;6.788;2023-08-06T05:23:22;14.60;98.30
55634;DHT22;41504;53.162;6.788;2023-08-06T05:25:48;14.60;98.30
55634;DHT22;41504;53.162;6.788;2023-08-06T05:28:14;14.70;98.30
55634;DHT22;41504;53.162;6.788;2023-08-06T05:30:42;14.60;98.30
55634;DHT22;41504;53.162;6.788;2023-08-06T05:33:08;14.70;98.30
55634;DHT22;41504;53.162;6.788;2023-08-06T05:35:34;14.70;98.30
55634;DHT22;41504;53.162;6.788;2023-08-06T05:38:00;14.70;98.30
55634;DHT22;41504;53.162;6.788;2023-08-06T05:40:25;14.80;98.30
55634;DHT22;41504;53.162;6.788;2023-08-06T05:42:54;14.80;98.30
55634;DHT22;41504;53.162;6.788;2023-08-06T05:45:20;14.80;98.30
55634;DHT22;41504;53.162;6.788;2023-08-06T05:47:49;14.90;98.20
55634;DHT22;41504;53.162;6.788;2023-08-06T05:50:15;14.90;98.20
55634;DHT22;41504;53.162;6.788;2023-08-06T05:52:41;15.00;98.10
55634;DHT22;41504;53.162;6.788;2023-08-06T05:55:07;15.00;98.10
55634;DHT22;41504;53.162;6.788;2023-08-06T05:57:33;15.00;98.10
55634;DHT22;41504;53.162;6.788;2023-08-06T05:59:58;15.00;98.10
55634;DHT22;41504;53.162;6.788;2023-08-06T06:02:24;15.10;98.10
55634;DHT22;41504;53.162;6.788;2023-08-06T06:04:50;15.10;98.00
55634;DHT22;41504;53.162;6.788;2023-08-06T06:07:16;15.20;98.00
55634;DHT22;41504;53.162;6.788;2023-08-06T06:09:41;15.20;98.00
55634;DHT22;41504;53.162;6.788;2023-08-06T06:12:07;15.30;98.00
55634;DHT22;41504;53.162;6.788;2023-08-06T06:14:33;15.30;97.90
55634;DHT22;41504;53.162;6.788;2023-08-06T06:16:59;15.30;97.90
55634;DHT22;41504;53.162;6.788;2023-08-06T06:19:25;15.40;97.80
55634;DHT22;41504;53.162;6.788;2023-08-06T06:21:51;15.40;97.80
55634;DHT22;41504;53.162;6.788;2023-08-06T06:24:17;15.50;97.70
55634;DHT22;41504;53.162;6.788;2023-08-06T06:26:43;15.50;97.80
55634;DHT22;41504;53.162;6.788;2023-08-06T06:29:08;15.50;97.80
55634;DHT22;41504;53.162;6.788;2023-08-06T06:31:34;15.60;97.70
55634;DHT22;41504;53.162;6.788;2023-08-06T06:34:00;15.70;97.70
55634;DHT22;41504;53.162;6.788;2023-08-06T06:36:26;15.70;97.70
55634;DHT22;41504;53.162;6.788;2023-08-06T06:38:52;15.80;97.60
55634;DHT22;41504;53.162;6.788;2023-08-06T06:41:17;15.80;97.50
55634;DHT22;41504;53.162;6.788;2023-08-06T06:43:44;15.90;97.50
55634;DHT22;41504;53.162;6.788;2023-08-06T06:46:10;15.90;97.40
55634;DHT22;41504;53.162;6.788;2023-08-06T06:48:36;15.90;97.30
55634;DHT22;41504;53.162;6.788;2023-08-06T06:51:04;16.00;97.30
55634;DHT22;41504;53.162;6.788;2023-08-06T06:53:30;16.10;97.30
55634;DHT22;41504;53.162;6.788;2023-08-06T06:56:01;16.10;97.20
55634;DHT22;41504;53.162;6.788;2023-08-06T06:58:26;16.10;97.10
55634;DHT22;41504;53.162;6.788;2023-08-06T07:00:52;16.20;97.10
55634;DHT22;41504;53.162;6.788;2023-08-06T07:03:19;16.30;97.00
55634;DHT22;41504;53.162;6.788;2023-08-06T07:05:49;16.30;96.90
55634;DHT22;41504;53.162;6.788;2023-08-06T07:08:15;16.40;96.90
55634;DHT22;41504;53.162;6.788;2023-08-06T07:10:41;16.40;96.70
55634;DHT22;41504;53.162;6.788;2023-08-06T07:13:07;16.60;96.60
55634;DHT22;41504;53.162;6.788;2023-08-06T07:15:33;16.50;96.60
55634;DHT22;41504;53.162;6.788;2023-08-06T07:17:59;16.60;96.60
55634;DHT22;41504;53.162;6.788;2023-08-06T07:20:24;16.70;96.60
55634;DHT22;41504;53.162;6.788;2023-08-06T07:22:50;16.70;96.40
55634;DHT22;41504;53.162;6.788;2023-08-06T07:25:16;16.80;96.30
55634;DHT22;41504;53.162;6.788;2023-08-06T07:27:42;16.80;96.20
55634;DHT22;41504;53.162;6.788;2023-08-06T07:30:08;16.80;96.10
55634;DHT22;41504;53.162;6.788;2023-08-06T07:32:34;16.80;96.10
55634;DHT22;41504;53.162;6.788;2023-08-06T07:35:00;16.90;96.00
55634;DHT22;41504;53.162;6.788;2023-08-06T07:37:29;16.80;96.00
55634;DHT22;41504;53.162;6.788;2023-08-06T07:39:58;16.80;96.00
55634;DHT22;41504;53.162;6.788;2023-08-06T07:42:24;16.80;96.10
55634;DHT22;41504;53.162;6.788;2023-08-06T07:44:55;16.80;96.20
55634;DHT22;41504;53.162;6.788;2023-08-06T07:47:21;16.90;95.90
55634;DHT22;41504;53.162;6.788;2023-08-06T07:49:47;16.90;95.90
55634;DHT22;41504;53.162;6.788;2023-08-06T07:52:13;16.90;95.60
55634;DHT22;41504;53.162;6.788;2023-08-06T07:54:39;16.80;95.70
55634;DHT22;41504;53.162;6.788;2023-08-06T07:57:05;16.90;95.90
55634;DHT22;41504;53.162;6.788;2023-08-06T07:59:30;16.90;95.90
55634;DHT22;41504;53.162;6.788;2023-08-06T08:01:56;17.00;95.90
55634;DHT22;41504;53.162;6.788;2023-08-06T08:04:24;17.00;95.80
55634;DHT22;41504;53.162;6.788;2023-08-06T08:06:50;17.10;95.80
55634;DHT22;41504;53.162;6.788;2023-08-06T08:09:15;17.20;95.80
55634;DHT22;41504;53.162;6.788;2023-08-06T08:11:42;17.20;95.70
55634;DHT22;41504;53.162;6.788;2023-08-06T08:14:07;17.20;95.40
55634;DHT22;41504;53.162;6.788;2023-08-06T08:16:33;17.20;95.30
55634;DHT22;41504;53.162;6.788;2023-08-06T08:18:59;17.10;95.50
55634;DHT22;41504;53.162;6.788;2023-08-06T08:21:25;17.20;95.30
55634;DHT22;41504;53.162;6.788;2023-08-06T08:23:51;17.20;95.30
55634;DHT22;41504;53.162;6.788;2023-08-06T08:26:17;17.20;95.30
55634;DHT22;41504;53.162;6.788;2023-08-06T08:28:43;17.30;95.30
55634;DHT22;41504;53.162;6.788;2023-08-06T08:31:09;17.40;95.20
55634;DHT22;41504;53.162;6.788;2023-08-06T08:33:35;17.50;95.20
55634;DHT22;41504;53.162;6.788;2023-08-06T08:36:01;17.50;95.00
55634;DHT22;41504;53.162;6.788;2023-08-06T08:38:26;17.60;94.80
55634;DHT22;41504;53.162;6.788;2023-08-06T08:40:54;17.60;94.90
55634;DHT22;41504;53.162;6.788;2023-08-06T08:43:23;17.70;94.90
55634;DHT22;41504;53.162;6.788;2023-08-06T08:45:53;17.80;94.70
55634;DHT22;41504;53.162;6.788;2023-08-06T08:48:26;18.00;94.60
55634;DHT22;41504;53.162;6.788;2023-08-06T08:50:56;18.00;94.40
55634;DHT22;41504;53.162;6.788;2023-08-06T08:53:22;18.10;94.20
55634;DHT22;41504;53.162;6.788;2023-08-06T08:55:51;18.20;94.10
55634;DHT22;41504;53.162;6.788;2023-08-06T08:58:18;18.40;93.90
55634;DHT22;41504;53.162;6.788;2023-08-06T09:00:45;18.50;93.30
55634;DHT22;41504;53.162;6.788;2023-08-06T09:03:11;18.50;93.40
55634;DHT22;41504;53.162;6.788;2023-08-06T09:05:43;18.60;93.30
55634;DHT22;41504;53.162;6.788;2023-08-06T09:08:12;18.70;93.00
55634;DHT22;41504;53.162;6.788;2023-08-06T09:10:40;18.80;92.50
55634;DHT22;41504;53.162;6.788;2023-08-06T09:13:09;18.80;92.30
55634;DHT22;41504;53.162;6.788;2023-08-06T09:15:38;18.80;92.20
55634;DHT22;41504;53.162;6.788;2023-08-06T09:18:09;18.90;92.20
55634;DHT22;41504;53.162;6.788;2023-08-06T09:20:38;18.90;91.90
55634;DHT22;41504;53.162;6.788;2023-08-06T09:23:10;18.90;91.60
55634;DHT22;41504;53.162;6.788;2023-08-06T09:25:39;19.00;91.40
55634;DHT22;41504;53.162;6.788;2023-08-06T09:28:09;19.00;91.30
55634;DHT22;41504;53.162;6.788;2023-08-06T09:30:36;19.10;91.20
55634;DHT22;41504;53.162;6.788;2023-08-06T09:33:18;19.10;90.60
55634;DHT22;41504;53.162;6.788;2023-08-06T09:35:46;19.20;90.10
55634;DHT22;41504;53.162;6.788;2023-08-06T09:38:12;19.30;90.10
55634;DHT22;41504;53.162;6.788;2023-08-06T09:40:39;19.30;89.80
55634;DHT22;41504;53.162;6.788;2023-08-06T09:43:05;19.50;89.10
55634;DHT22;41504;53.162;6.788;2023-08-06T09:45:36;19.50;88.00
55634;DHT22;41504;53.162;6.788;2023-08-06T09:48:09;19.60;87.90
55634;DHT22;41504;53.162;6.788;2023-08-06T09:50:40;19.70;85.70
55634;DHT22;41504;53.162;6.788;2023-08-06T09:53:09;19.70;86.00
55634;DHT22;41504;53.162;6.788;2023-08-06T09:55:35;19.70;85.40
55634;DHT22;41504;53.162;6.788;2023-08-06T09:58:05;19.80;85.80
55634;DHT22;41504;53.162;6.788;2023-08-06T10:00:33;19.80;84.80
55634;DHT22;41504;53.162;6.788;2023-08-06T10:03:00;19.90;84.20
55634;DHT22;41504;53.162;6.788;2023-08-06T10:05:26;20.00;84.30
55634;DHT22;41504;53.162;6.788;2023-08-06T10:07:52;20.10;84.00
55634;DHT22;41504;53.162;6.788;2023-08-06T10:10:19;20.10;82.70
55634;DHT22;41504;53.162;6.788;2023-08-06T10:12:50;20.30;81.90
55634;DHT22;41504;53.162;6.788;2023-08-06T10:15:20;20.40;82.30
55634;DHT22;41504;53.162;6.788;2023-08-06T10:17:49;20.50;81.50
55634;DHT22;41504;53.162;6.788;2023-08-06T10:20:17;20.60;80.80
55634;DHT22;41504;53.162;6.788;2023-08-06T10:22:44;20.60;81.20
55634;DHT22;41504;53.162;6.788;2023-08-06T10:25:11;20.70;80.70
55634;DHT22;41504;53.162;6.788;2023-08-06T10:27:54;20.70;78.40
55634;DHT22;41504;53.162;6.788;2023-08-06T10:30:31;20.60;79.40
55634;DHT22;41504;53.162;6.788;2023-08-06T10:32:59;20.70;77.90
55634;DHT22;41504;53.162;6.788;2023-08-06T10:38:18;20.50;77.70
55634;DHT22;41504;53.162;6.788;2023-08-06T10:43:29;20.40;79.40
55634;DHT22;41504;53.162;6.788;2023-08-06T10:45:58;20.40;78.50
55634;DHT22;41504;53.162;6.788;2023-08-06T10:48:40;20.40;79.50
55634;DHT22;41504;53.162;6.788;2023-08-06T10:51:11;20.30;80.10
55634;DHT22;41504;53.162;6.788;2023-08-06T10:53:38;20.40;80.30
55634;DHT22;41504;53.162;6.788;2023-08-06T10:56:23;20.40;80.20
55634;DHT22;41504;53.162;6.788;2023-08-06T10:58:51;20.50;80.00
55634;DHT22;41504;53.162;6.788;2023-08-06T11:01:17;20.60;79.40
55634;DHT22;41504;53.162;6.788;2023-08-06T11:03:45;20.70;78.30
55634;DHT22;41504;53.162;6.788;2023-08-06T11:06:11;20.60;77.50
55634;DHT22;41504;53.162;6.788;2023-08-06T11:08:48;20.60;78.70
55634;DHT22;41504;53.162;6.788;2023-08-06T11:11:15;20.60;79.00
55634;DHT22;41504;53.162;6.788;2023-08-06T11:13:43;20.60;78.90
55634;DHT22;41504;53.162;6.788;2023-08-06T11:16:17;20.70;78.90
55634;DHT22;41504;53.162;6.788;2023-08-06T11:18:43;20.80;78.70
55634;DHT22;41504;53.162;6.788;2023-08-06T11:21:09;20.90;78.00
55634;DHT22;41504;53.162;6.788;2023-08-06T11:23:35;21.00;77.70
55634;DHT22;41504;53.162;6.788;2023-08-06T11:26:01;21.10;76.10
55634;DHT22;41504;53.162;6.788;2023-08-06T11:28:28;21.10;76.60
55634;DHT22;41504;53.162;6.788;2023-08-06T11:31:03;21.10;74.20
55634;DHT22;41504;53.162;6.788;2023-08-06T11:33:29;21.10;74.60
55634;DHT22;41504;53.162;6.788;2023-08-06T11:35:59;21.10;74.40
55634;DHT22;41504;53.162;6.788;2023-08-06T11:38:26;21.10;72.70
55634;DHT22;41504;53.162;6.788;2023-08-06T11:40:53;21.00;73.60
55634;DHT22;41504;53.162;6.788;2023-08-06T11:43:19;21.10;74.30
55634;DHT22;41504;53.162;6.788;2023-08-06T11:45:51;21.20;74.40
55634;DHT22;41504;53.162;6.788;2023-08-06T11:48:19;21.30;74.10
55634;DHT22;41504;53.162;6.788;2023-08-06T11:50:45;21.50;73.70
55634;DHT22;41504;53.162;6.788;2023-08-06T11:53:14;21.70;73.70
55634;DHT22;41504;53.162;6.788;2023-08-06T11:55:40;21.80;73.00
55634;DHT22;41504;53.162;6.788;2023-08-06T11:58:10;21.90;71.90
55634;DHT22;41504;53.162;6.788;2023-08-06T12:00:40;22.00;71.80
55634;DHT22;41504;53.162;6.788;2023-08-06T12:03:09;22.10;71.40
55634;DHT22;41504;53.162;6.788;2023-08-06T12:05:35;22.10;69.30
55634;DHT22;41504;53.162;6.788;2023-08-06T12:08:02;22.10;68.30
55634;DHT22;41504;53.162;6.788;2023-08-06T12:10:30;22.10;65.60
55634;DHT22;41504;53.162;6.788;2023-08-06T12:12:56;21.90;65.70
55634;DHT22;41504;53.162;6.788;2023-08-06T12:15:23;21.70;66.70
55634;DHT22;41504;53.162;6.788;2023-08-06T12:17:49;21.80;68.10
55634;DHT22;41504;53.162;6.788;2023-08-06T12:20:15;21.90;65.50
55634;DHT22;41504;53.162;6.788;2023-08-06T12:22:41;21.90;64.20
55634;DHT22;41504;53.162;6.788;2023-08-06T12:25:13;21.80;66.50
55634;DHT22;41504;53.162;6.788;2023-08-06T12:27:44;21.90;65.90
55634;DHT22;41504;53.162;6.788;2023-08-06T12:30:11;22.00;65.80
55634;DHT22;41504;53.162;6.788;2023-08-06T12:32:38;22.00;67.00
55634;DHT22;41504;53.162;6.788;2023-08-06T12:35:04;22.10;66.90
55634;DHT22;41504;53.162;6.788;2023-08-06T12:37:32;22.20;66.80
55634;DHT22;41504;53.162;6.788;2023-08-06T12:39:58;22.40;66.90
55634;DHT22;41504;53.162;6.788;2023-08-06T12:42:24;22.50;65.80
55634;DHT22;41504;53.162;6.788;2023-08-06T12:44:50;22.60;64.30
55634;DHT22;41504;53.162;6.788;2023-08-06T12:47:17;22.50;64.50
55634;DHT22;41504;53.162;6.788;2023-08-06T12:49:42;22.50;64.00
55634;DHT22;41504;53.162;6.788;2023-08-06T12:52:11;22.50;64.50
55634;DHT22;41504;53.162;6.788;2023-08-06T12:54:40;22.60;65.20
55634;DHT22;41504;53.162;6.788;2023-08-06T12:57:09;22.80;65.60
55634;DHT22;41504;53.162;6.788;2023-08-06T12:59:35;22.90;63.50
55634;DHT22;41504;53.162;6.788;2023-08-06T13:02:02;22.90;64.40
55634;DHT22;41504;53.162;6.788;2023-08-06T13:04:28;22.80;63.80
55634;DHT22;41504;53.162;6.788;2023-08-06T13:06:54;22.60;64.90
55634;DHT22;41504;53.162;6.788;2023-08-06T13:09:20;22.60;64.30
55634;DHT22;41504;53.162;6.788;2023-08-06T13:11:46;22.70;63.90
55634;DHT22;41504;53.162;6.788;2023-08-06T13:14:13;22.80;64.50
55634;DHT22;41504;53.162;6.788;2023-08-06T13:16:44;22.90;64.70
55634;DHT22;41504;53.162;6.788;2023-08-06T13:19:13;23.00;64.80
55634;DHT22;41504;53.162;6.788;2023-08-06T13:24:08;23.00;64.30
55634;DHT22;41504;53.162;6.788;2023-08-06T13:26:39;22.90;65.00
55634;DHT22;41504;53.162;6.788;2023-08-06T13:29:05;22.80;65.50
55634;DHT22;41504;53.162;6.788;2023-08-06T13:31:32;22.70;65.50
55634;DHT22;41504;53.162;6.788;2023-08-06T13:33:58;22.40;65.10
55634;DHT22;41504;53.162;6.788;2023-08-06T13:36:28;22.20;65.60
55634;DHT22;41504;53.162;6.788;2023-08-06T13:38:56;22.10;66.40
55634;DHT22;41504;53.162;6.788;2023-08-06T13:41:23;22.30;66.60
55634;DHT22;41504;53.162;6.788;2023-08-06T13:43:56;22.50;66.10
55634;DHT22;41504;53.162;6.788;2023-08-06T13:46:22;22.60;66.60
55634;DHT22;41504;53.162;6.788;2023-08-06T13:48:53;22.70;65.80
55634;DHT22;41504;53.162;6.788;2023-08-06T13:51:19;22.80;65.40
55634;DHT22;41504;53.162;6.788;2023-08-06T13:53:45;22.80;65.20
55634;DHT22;41504;53.162;6.788;2023-08-06T13:56:11;22.80;65.70
55634;DHT22;41504;53.162;6.788;2023-08-06T13:58:40;22.70;65.50
55634;DHT22;41504;53.162;6.788;2023-08-06T14:01:09;22.60;65.80
55634;DHT22;41504;53.162;6.788;2023-08-06T14:03:35;22.60;66.50
55634;DHT22;41504;53.162;6.788;2023-08-06T14:06:00;22.50;64.80
55634;DHT22;41504;53.162;6.788;2023-08-06T14:08:26;22.10;65.90
55634;DHT22;41504;53.162;6.788;2023-08-06T14:10:52;21.80;67.60
55634;DHT22;41504;53.162;6.788;2023-08-06T14:13:18;21.90;67.70
55634;DHT22;41504;53.162;6.788;2023-08-06T14:15:44;21.80;68.20
55634;DHT22;41504;53.162;6.788;2023-08-06T14:18:14;21.90;68.60
55634;DHT22;41504;53.162;6.788;2023-08-06T14:20:41;22.00;67.30
55634;DHT22;41504;53.162;6.788;2023-08-06T14:23:09;21.90;65.40
55634;DHT22;41504;53.162;6.788;2023-08-06T14:25:35;21.90;65.80
55634;DHT22;41504;53.162;6.788;2023-08-06T14:28:09;22.00;65.10
55634;DHT22;41504;53.162;6.788;2023-08-06T14:30:35;21.90;64.80
55634;DHT22;41504;53.162;6.788;2023-08-06T14:33:04;21.60;63.80
55634;DHT22;41504;53.162;6.788;2023-08-06T14:35:30;21.40;65.10
55634;DHT22;41504;53.162;6.788;2023-08-06T14:37:56;21.40;66.00
55634;DHT22;41504;53.162;6.788;2023-08-06T14:40:22;21.50;65.70
55634;DHT22;41504;53.162;6.788;2023-08-06T14:42:48;21.60;66.90
55634;DHT22;41504;53.162;6.788;2023-08-06T14:45:16;21.70;65.80
55634;DHT22;41504;53.162;6.788;2023-08-06T14:47:42;21.80;65.50
55634;DHT22;41504;53.162;6.788;2023-08-06T14:50:08;21.90;65.40
55634;DHT22;41504;53.162;6.788;2023-08-06T14:52:34;21.90;65.80
55634;DHT22;41504;53.162;6.788;2023-08-06T14:55:00;22.10;65.90
55634;DHT22;41504;53.162;6.788;2023-08-06T14:57:27;22.20;64.50
55634;DHT22;41504;53.162;6.788;2023-08-06T14:59:54;22.10;65.40
55634;DHT22;41504;53.162;6.788;2023-08-06T15:02:20;22.00;63.30
55634;DHT22;41504;53.162;6.788;2023-08-06T15:04:45;21.70;63.40
55634;DHT22;41504;53.162;6.788;2023-08-06T15:07:11;21.50;64.70
55634;DHT22;41504;53.162;6.788;2023-08-06T15:09:37;21.40;65.00
55634;DHT22;41504;53.162;6.788;2023-08-06T15:12:03;21.50;65.50
55634;DHT22;41504;53.162;6.788;2023-08-06T15:14:29;21.50;65.40
55634;DHT22;41504;53.162;6.788;2023-08-06T15:16:54;21.30;66.30
55634;DHT22;41504;53.162;6.788;2023-08-06T15:19:28;21.30;66.90
55634;DHT22;41504;53.162;6.788;2023-08-06T15:21:53;21.30;66.30
55634;DHT22;41504;53.162;6.788;2023-08-06T15:24:21;21.20;67.00
55634;DHT22;41504;53.162;6.788;2023-08-06T15:26:46;21.10;67.00
55634;DHT22;41504;53.162;6.788;2023-08-06T15:29:12;21.10;66.50
55634;DHT22;41504;53.162;6.788;2023-08-06T15:31:39;21.00;66.70
55634;DHT22;41504;53.162;6.788;2023-08-06T15:34:09;20.90;68.10
55634;DHT22;41504;53.162;6.788;2023-08-06T15:36:34;20.90;68.50
55634;DHT22;41504;53.162;6.788;2023-08-06T15:39:03;20.90;68.20
55634;DHT22;41504;53.162;6.788;2023-08-06T15:41:30;20.70;68.10
55634;DHT22;41504;53.162;6.788;2023-08-06T15:43:56;20.60;68.90